sensor_id;sensor_type;location;lat;lon;timestamp;temperature;humidity
23520;DHT22;11936;50.820;4.336;2024-02-23T00:01:15;7.20;99.90
23520;DHT22;11936;50.820;4.336;2024-02-23T00:03:41;7.20;99.90
23520;DHT22;11936;50.820;4.336;2024-02-23T00:06:06;7.10;99.90
23520;DHT22;11936;50.820;4.336;2024-02-23T00:08:32;7.10;99.90
23520;DHT22;11936;50.820;4.336;2024-02-23T00:10:57;7.00;99.90
23520;DHT22;11936;50.820;4.336;2024-02-23T00:13:23;7.20;99.90
23520;DHT22;11936;50.820;4.336;2024-02-23T00:15:49;7.10;99.90
23520;DHT22;11936;50.820;4.336;2024-02-23T00:18:14;7.10;99.90
23520;DHT22;11936;50.820;4.336;2024-02-23T00:20:41;7.10;99.90
23520;DHT22;11936;50.820;4.336;2024-02-23T00:23:07;6.90;99.90
23520;DHT22;11936;50.820;4.336;2024-02-23T00:25:32;7.00;99.90
23520;DHT22;11936;50.820;4.336;2024-02-23T00:27:58;6.90;99.90
23520;DHT22;11936;50.820;4.336;2024-02-23T00:30:23;7.00;99.90
23520;DHT22;11936;50.820;4.336;2024-02-23T00:32:49;6.90;99.90
23520;DHT22;11936;50.820;4.336;2024-02-23T00:35:15;6.80;99.90
23520;DHT22;11936;50.820;4.336;2024-02-23T00:37:40;6.80;99.90
23520;DHT22;11936;50.820;4.336;2024-02-23T00:40:06;6.80;99.90
23520;DHT22;11936;50.820;4.336;2024-02-23T00:42:32;6.90;99.90
23520;DHT22;11936;50.820;4.336;2024-02-23T00:44:58;7.00;99.90
23520;DHT22;11936;50.820;4.336;2024-02-23T00:47:23;6.90;99.90
23520;DHT22;11936;50.820;4.336;2024-02-23T00:49:49;6.90;99.90
23520;DHT22;11936;50.820;4.336;2024-02-23T00:52:15;6.70;99.90
23520;DHT22;11936;50.820;4.336;2024-02-23T00:54:41;6.70;99.90
23520;DHT22;11936;50.820;4.336;2024-02-23T00:57:06;6.60;99.90
23520;DHT22;11936;50.820;4.336;2024-02-23T00:59:32;6.60;99.90
23520;DHT22;11936;50.820;4.336;2024-02-23T01:01:58;6.60;99.90
23520;DHT22;11936;50.820;4.336;2024-02-23T01:04:23;6.60;99.90
23520;DHT22;11936;50.820;4.336;2024-02-23T01:06:49;6.60;99.90
23520;DHT22;11936;50.820;4.336;2024-02-23T01:09:14;6.60;99.90
23520;DHT22;11936;50.820;4.336;2024-02-23T01:11:42;6.60;99.90
23520;DHT22;11936;50.820;4.336;2024-02-23T01:14:07;6.70;99.90
23520;DHT22;11936;50.820;4.336;2024-02-23T01:16:33;6.80;99.90
23520;DHT22;11936;50.820;4.336;2024-02-23T01:18:59;6.70;99.90
23520;DHT22;11936;50.820;4.336;2024-02-23T01:21:24;6.60;99.90
23520;DHT22;11936;50.820;4.336;2024-02-23T01:23:50;6.60;99.90
23520;DHT22;11936;50.820;4.336;2024-02-23T01:26:15;6.70;99.90
23520;DHT22;11936;50.820;4.336;2024-02-23T01:28:41;6.70;99.90
23520;DHT22;11936;50.820;4.336;2024-02-23T01:31:10;6.70;99.90
23520;DHT22;11936;50.820;4.336;2024-02-23T01:33:37;6.70;99.90
23520;DHT22;11936;50.820;4.336;2024-02-23T01:36:07;6.60;99.90
23520;DHT22;11936;50.820;4.336;2024-02-23T01:38:33;6.60;99.90
23520;DHT22;11936;50.820;4.336;2024-02-23T01:40:59;6.70;99.90
23520;DHT22;11936;50.820;4.336;2024-02-23T01:43:25;6.70;99.90
23520;DHT22;11936;50.820;4.336;2024-02-23T01:45:51;6.60;99.90
23520;DHT22;11936;50.820;4.336;2024-02-23T01:48:17;6.60;99.90
23520;DHT22;11936;50.820;4.336;2024-02-23T01:50:43;6.80;99.90
23520;DHT22;11936;50.820;4.336;2024-02-23T01:53:10;6.80;99.90
23520;DHT22;11936;50.820;4.336;2024-02-23T01:55:40;6.80;99.90
23520;DHT22;11936;50.820;4.336;2024-02-23T01:58:06;6.70;99.90
23520;DHT22;11936;50.820;4.336;2024-02-23T02:00:33;6.70;99.90
23520;DHT22;11936;50.820;4.336;2024-02-23T02:02:59;6.80;99.90
23520;DHT22;11936;50.820;4.336;2024-02-23T02:05:25;6.90;99.90
23520;DHT22;11936;50.820;4.336;2024-02-23T02:07:51;7.00;99.90
23520;DHT22;11936;50.820;4.336;2024-02-23T02:10:20;7.00;99.90
23520;DHT22;11936;50.820;4.336;2024-02-23T02:12:46;6.90;99.90
23520;DHT22;11936;50.820;4.336;2024-02-23T02:15:11;6.90;99.90
23520;DHT22;11936;50.820;4.336;2024-02-23T02:17:37;6.90;99.90
23520;DHT22;11936;50.820;4.336;2024-02-23T02:20:03;6.80;99.90
23520;DHT22;11936;50.820;4.336;2024-02-23T02:22:33;6.90;99.90
23520;DHT22;11936;50.820;4.336;2024-02-23T02:24:59;7.00;99.90
23520;DHT22;11936;50.820;4.336;2024-02-23T02:27:24;6.90;99.90
23520;DHT22;11936;50.820;4.336;2024-02-23T02:29:50;6.90;99.90
23520;DHT22;11936;50.820;4.336;2024-02-23T02:32:16;6.90;99.90
23520;DHT22;11936;50.820;4.336;2024-02-23T02:34:42;6.90;99.90
23520;DHT22;11936;50.820;4.336;2024-02-23T02:37:08;6.90;99.90
23520;DHT22;11936;50.820;4.336;2024-02-23T02:39:33;6.90;99.90
23520;DHT22;11936;50.820;4.336;2024-02-23T02:41:59;6.90;99.90
23520;DHT22;11936;50.820;4.336;2024-02-23T02:44:25;6.90;99.90
23520;DHT22;11936;50.820;4.336;2024-02-23T02:46:52;7.00;99.90
23520;DHT22;11936;50.820;4.336;2024-02-23T02:49:17;7.10;99.90
23520;DHT22;11936;50.820;4.336;2024-02-23T02:51:43;7.10;99.90
23520;DHT22;11936;50.820;4.336;2024-02-23T02:54:08;7.10;99.90
23520;DHT22;11936;50.820;4.336;2024-02-23T02:56:34;7.00;99.90
23520;DHT22;11936;50.820;4.336;2024-02-23T02:58:59;7.00;99.90
23520;DHT22;11936;50.820;4.336;2024-02-23T03:01:25;7.10;99.90
23520;DHT22;11936;50.820;4.336;2024-02-23T03:03:51;7.10;99.90
23520;DHT22;11936;50.820;4.336;2024-02-23T03:06:17;7.20;99.90
23520;DHT22;11936;50.820;4.336;2024-02-23T03:08:42;7.30;99.90
23520;DHT22;11936;50.820;4.336;2024-02-23T03:11:08;7.20;99.90
23520;DHT22;11936;50.820;4.336;2024-02-23T03:13:34;7.10;99.90
23520;DHT22;11936;50.820;4.336;2024-02-23T03:15:59;7.20;99.90
23520;DHT22;11936;50.820;4.336;2024-02-23T03:18:25;7.30;99.90
23520;DHT22;11936;50.820;4.336;2024-02-23T03:20:53;7.30;99.90
23520;DHT22;11936;50.820;4.336;2024-02-23T03:23:18;7.30;99.90
23520;DHT22;11936;50.820;4.336;2024-02-23T03:25:44;7.20;99.90
23520;DHT22;11936;50.820;4.336;2024-02-23T03:28:09;7.30;99.90
23520;DHT22;11936;50.820;4.336;2024-02-23T03:30:35;7.20;99.90
23520;DHT22;11936;50.820;4.336;2024-02-23T03:33:00;7.20;99.90
23520;DHT22;11936;50.820;4.336;2024-02-23T03:35:26;7.20;99.90
23520;DHT22;11936;50.820;4.336;2024-02-23T03:37:51;7.20;99.90
23520;DHT22;11936;50.820;4.336;2024-02-23T03:40:17;7.10;99.90
23520;DHT22;11936;50.820;4.336;2024-02-23T03:42:45;7.10;99.90
23520;DHT22;11936;50.820;4.336;2024-02-23T03:45:11;7.20;99.90
23520;DHT22;11936;50.820;4.336;2024-02-23T03:47:37;7.10;99.90
23520;DHT22;11936;50.820;4.336;2024-02-23T03:50:03;7.20;99.90
23520;DHT22;11936;50.820;4.336;2024-02-23T03:52:29;7.10;99.90
23520;DHT22;11936;50.820;4.336;2024-02-23T03:54:54;7.00;99.90
23520;DHT22;11936;50.820;4.336;2024-02-23T03:57:20;7.10;99.90
23520;DHT22;11936;50.820;4.336;2024-02-23T03:59:55;7.10;99.90
23520;DHT22;11936;50.820;4.336;2024-02-23T04:02:21;7.10;99.90
23520;DHT22;11936;50.820;4.336;2024-02-23T04:04:47;7.20;99.90
23520;DHT22;11936;50.820;4.336;2024-02-23T04:07:13;7.20;99.90
23520;DHT22;11936;50.820;4.336;2024-02-23T04:09:38;7.30;99.90
23520;DHT22;11936;50.820;4.336;2024-02-23T04:12:04;7.10;99.90
23520;DHT22;11936;50.820;4.336;2024-02-23T04:14:31;7.10;99.90
23520;DHT22;11936;50.820;4.336;2024-02-23T04:16:56;7.10;99.90
23520;DHT22;11936;50.820;4.336;2024-02-23T04:19:22;7.10;99.90
23520;DHT22;11936;50.820;4.336;2024-02-23T04:21:47;7.00;99.90
23520;DHT22;11936;50.820;4.336;2024-02-23T04:24:13;7.00;99.90
23520;DHT22;11936;50.820;4.336;2024-02-23T04:26:38;7.10;99.90
23520;DHT22;11936;50.820;4.336;2024-02-23T04:29:04;7.10;99.90
23520;DHT22;11936;50.820;4.336;2024-02-23T04:31:29;7.10;99.90
23520;DHT22;11936;50.820;4.336;2024-02-23T04:33:55;7.20;99.90
23520;DHT22;11936;50.820;4.336;2024-02-23T04:36:20;7.20;99.90
23520;DHT22;11936;50.820;4.336;2024-02-23T04:38:46;7.20;99.90
23520;DHT22;11936;50.820;4.336;2024-02-23T04:41:12;7.20;99.90
23520;DHT22;11936;50.820;4.336;2024-02-23T04:43:37;7.30;99.90
23520;DHT22;11936;50.820;4.336;2024-02-23T04:46:03;7.20;99.90
23520;DHT22;11936;50.820;4.336;2024-02-23T04:48:28;7.20;99.90
23520;DHT22;11936;50.820;4.336;2024-02-23T04:50:56;7.20;99.90
23520;DHT22;11936;50.820;4.336;2024-02-23T04:53:22;7.10;99.90
23520;DHT22;11936;50.820;4.336;2024-02-23T04:55:47;7.20;99.90
23520;DHT22;11936;50.820;4.336;2024-02-23T04:58:13;7.30;99.90
23520;DHT22;11936;50.820;4.336;2024-02-23T05:00:39;7.20;99.90
23520;DHT22;11936;50.820;4.336;2024-02-23T05:03:05;7.20;99.90
23520;DHT22;11936;50.820;4.336;2024-02-23T05:05:32;7.20;99.90
23520;DHT22;11936;50.820;4.336;2024-02-23T05:07:57;7.30;99.90
23520;DHT22;11936;50.820;4.336;2024-02-23T05:10:23;7.70;99.90
23520;DHT22;11936;50.820;4.336;2024-02-23T05:12:49;8.00;99.90
23520;DHT22;11936;50.820;4.336;2024-02-23T05:15:15;8.20;99.90
23520;DHT22;11936;50.820;4.336;2024-02-23T05:17:40;8.30;99.90
23520;DHT22;11936;50.820;4.336;2024-02-23T05:20:07;8.00;99.90
23520;DHT22;11936;50.820;4.336;2024-02-23T05:22:36;7.60;99.90
23520;DHT22;11936;50.820;4.336;2024-02-23T05:25:01;7.30;99.90
23520;DHT22;11936;50.820;4.336;2024-02-23T05:27:27;7.20;99.90
23520;DHT22;11936;50.820;4.336;2024-02-23T05:29:53;7.20;99.90
23520;DHT22;11936;50.820;4.336;2024-02-23T05:32:18;7.20;99.90
23520;DHT22;11936;50.820;4.336;2024-02-23T05:34:44;7.00;99.90
23520;DHT22;11936;50.820;4.336;2024-02-23T05:37:10;7.00;99.90
23520;DHT22;11936;50.820;4.336;2024-02-23T05:39:36;6.90;99.90
23520;DHT22;11936;50.820;4.336;2024-02-23T05:42:03;7.00;99.90
23520;DHT22;11936;50.820;4.336;2024-02-23T05:44:29;7.00;99.90
23520;DHT22;11936;50.820;4.336;2024-02-23T05:46:54;7.00;99.90
23520;DHT22;11936;50.820;4.336;2024-02-23T05:49:20;7.00;99.90
23520;DHT22;11936;50.820;4.336;2024-02-23T05:51:46;7.00;99.90
23520;DHT22;11936;50.820;4.336;2024-02-23T05:54:11;7.00;99.90
23520;DHT22;11936;50.820;4.336;2024-02-23T05:56:37;7.00;99.90
23520;DHT22;11936;50.820;4.336;2024-02-23T05:59:03;7.00;99.90
23520;DHT22;11936;50.820;4.336;2024-02-23T06:01:28;7.00;99.90
23520;DHT22;11936;50.820;4.336;2024-02-23T06:03:54;6.90;99.90
23520;DHT22;11936;50.820;4.336;2024-02-23T06:06:20;6.90;99.90
23520;DHT22;11936;50.820;4.336;2024-02-23T06:08:46;6.80;99.90
23520;DHT22;11936;50.820;4.336;2024-02-23T06:11:12;6.90;99.90
23520;DHT22;11936;50.820;4.336;2024-02-23T06:13:37;7.00;99.90
23520;DHT22;11936;50.820;4.336;2024-02-23T06:16:04;6.90;99.90
23520;DHT22;11936;50.820;4.336;2024-02-23T06:18:30;7.00;99.90
23520;DHT22;11936;50.820;4.336;2024-02-23T06:20:56;6.90;99.90
23520;DHT22;11936;50.820;4.336;2024-02-23T06:23:21;6.80;99.90
23520;DHT22;11936;50.820;4.336;2024-02-23T06:25:47;6.90;99.90
23520;DHT22;11936;50.820;4.336;2024-02-23T06:28:13;6.90;99.90
23520;DHT22;11936;50.820;4.336;2024-02-23T06:30:38;6.90;99.90
23520;DHT22;11936;50.820;4.336;2024-02-23T06:33:04;6.80;99.90
23520;DHT22;11936;50.820;4.336;2024-02-23T06:35:30;7.00;99.90
23520;DHT22;11936;50.820;4.336;2024-02-23T06:37:56;7.00;99.90
23520;DHT22;11936;50.820;4.336;2024-02-23T06:40:22;6.90;99.90
23520;DHT22;11936;50.820;4.336;2024-02-23T06:42:48;6.90;99.90
23520;DHT22;11936;50.820;4.336;2024-02-23T06:45:13;6.90;99.90
23520;DHT22;11936;50.820;4.336;2024-02-23T06:47:39;7.00;99.90
23520;DHT22;11936;50.820;4.336;2024-02-23T06:50:05;7.00;99.90
23520;DHT22;11936;50.820;4.336;2024-02-23T06:52:31;7.00;99.90
23520;DHT22;11936;50.820;4.336;2024-02-23T06:54:58;7.00;99.90
23520;DHT22;11936;50.820;4.336;2024-02-23T06:57:24;7.00;99.90
23520;DHT22;11936;50.820;4.336;2024-02-23T06:59:51;7.00;99.90
23520;DHT22;11936;50.820;4.336;2024-02-23T07:02:17;7.10;99.90
23520;DHT22;11936;50.820;4.336;2024-02-23T07:04:42;7.10;99.90
23520;DHT22;11936;50.820;4.336;2024-02-23T07:07:08;7.10;99.90
23520;DHT22;11936;50.820;4.336;2024-02-23T07:09:34;7.20;99.90
23520;DHT22;11936;50.820;4.336;2024-02-23T07:12:00;7.10;99.90
23520;DHT22;11936;50.820;4.336;2024-02-23T07:14:26;7.20;99.90
23520;DHT22;11936;50.820;4.336;2024-02-23T07:16:51;7.30;99.90
23520;DHT22;11936;50.820;4.336;2024-02-23T07:19:20;7.30;99.90
23520;DHT22;11936;50.820;4.336;2024-02-23T07:21:46;7.40;99.90
23520;DHT22;11936;50.820;4.336;2024-02-23T07:24:13;7.30;99.90
23520;DHT22;11936;50.820;4.336;2024-02-23T07:26:39;7.30;99.90
23520;DHT22;11936;50.820;4.336;2024-02-23T07:29:05;7.20;99.90
23520;DHT22;11936;50.820;4.336;2024-02-23T07:31:31;7.20;99.90
23520;DHT22;11936;50.820;4.336;2024-02-23T07:33:57;7.30;99.90
23520;DHT22;11936;50.820;4.336;2024-02-23T07:36:23;7.30;99.90
23520;DHT22;11936;50.820;4.336;2024-02-23T07:38:48;7.30;99.90
23520;DHT22;11936;50.820;4.336;2024-02-23T07:41:15;7.30;99.90
23520;DHT22;11936;50.820;4.336;2024-02-23T07:43:40;7.40;99.90
23520;DHT22;11936;50.820;4.336;2024-02-23T07:46:06;7.30;99.90
23520;DHT22;11936;50.820;4.336;2024-02-23T07:48:35;7.30;99.90
23520;DHT22;11936;50.820;4.336;2024-02-23T07:51:01;7.40;99.90
23520;DHT22;11936;50.820;4.336;2024-02-23T07:53:27;7.40;99.90
23520;DHT22;11936;50.820;4.336;2024-02-23T07:55:53;7.50;99.90
23520;DHT22;11936;50.820;4.336;2024-02-23T07:58:18;7.50;99.90
23520;DHT22;11936;50.820;4.336;2024-02-23T08:00:44;7.40;99.90
23520;DHT22;11936;50.820;4.336;2024-02-23T08:03:10;7.40;99.90
23520;DHT22;11936;50.820;4.336;2024-02-23T08:05:36;7.50;99.90
23520;DHT22;11936;50.820;4.336;2024-02-23T08:08:02;7.70;99.90
23520;DHT22;11936;50.820;4.336;2024-02-23T08:10:28;7.50;99.90
23520;DHT22;11936;50.820;4.336;2024-02-23T08:12:53;7.60;99.90
23520;DHT22;11936;50.820;4.336;2024-02-23T08:15:19;7.60;99.90
23520;DHT22;11936;50.820;4.336;2024-02-23T08:17:44;7.40;99.90
23520;DHT22;11936;50.820;4.336;2024-02-23T08:20:10;7.30;99.90
23520;DHT22;11936;50.820;4.336;2024-02-23T08:22:36;7.10;99.90
23520;DHT22;11936;50.820;4.336;2024-02-23T08:25:02;7.10;99.90
23520;DHT22;11936;50.820;4.336;2024-02-23T08:27:27;7.20;99.90
23520;DHT22;11936;50.820;4.336;2024-02-23T08:29:53;7.20;99.90
23520;DHT22;11936;50.820;4.336;2024-02-23T08:32:18;7.20;99.90
23520;DHT22;11936;50.820;4.336;2024-02-23T08:34:44;7.20;99.90
23520;DHT22;11936;50.820;4.336;2024-02-23T08:37:09;7.20;99.90
23520;DHT22;11936;50.820;4.336;2024-02-23T08:39:35;7.10;99.90
23520;DHT22;11936;50.820;4.336;2024-02-23T08:42:02;7.00;99.90
23520;DHT22;11936;50.820;4.336;2024-02-23T08:44:28;7.10;99.90
23520;DHT22;11936;50.820;4.336;2024-02-23T08:46:54;7.20;99.90
23520;DHT22;11936;50.820;4.336;2024-02-23T08:49:19;7.20;99.90
23520;DHT22;11936;50.820;4.336;2024-02-23T08:51:45;7.10;99.90
23520;DHT22;11936;50.820;4.336;2024-02-23T08:54:10;7.20;99.90
23520;DHT22;11936;50.820;4.336;2024-02-23T08:56:39;7.10;99.90
23520;DHT22;11936;50.820;4.336;2024-02-23T08:59:07;7.00;99.90
23520;DHT22;11936;50.820;4.336;2024-02-23T09:01:33;7.10;99.90
23520;DHT22;11936;50.820;4.336;2024-02-23T09:03:58;7.20;99.90
23520;DHT22;11936;50.820;4.336;2024-02-23T09:06:24;7.30;99.90
23520;DHT22;11936;50.820;4.336;2024-02-23T09:08:49;7.10;99.90
23520;DHT22;11936;50.820;4.336;2024-02-23T09:11:15;7.30;99.90
23520;DHT22;11936;50.820;4.336;2024-02-23T09:13:41;7.10;99.90
23520;DHT22;11936;50.820;4.336;2024-02-23T09:16:07;7.30;99.90
23520;DHT22;11936;50.820;4.336;2024-02-23T09:18:34;7.20;99.90
23520;DHT22;11936;50.820;4.336;2024-02-23T09:21:00;7.20;99.90
23520;DHT22;11936;50.820;4.336;2024-02-23T09:23:26;7.10;99.90
23520;DHT22;11936;50.820;4.336;2024-02-23T09:25:51;7.20;99.90
23520;DHT22;11936;50.820;4.336;2024-02-23T09:28:17;7.30;99.90
23520;DHT22;11936;50.820;4.336;2024-02-23T09:30:42;7.40;99.90
23520;DHT22;11936;50.820;4.336;2024-02-23T09:33:08;7.30;99.90
23520;DHT22;11936;50.820;4.336;2024-02-23T09:35:33;7.40;99.90
23520;DHT22;11936;50.820;4.336;2024-02-23T09:37:59;7.30;99.90
23520;DHT22;11936;50.820;4.336;2024-02-23T09:40:25;7.40;99.90
23520;DHT22;11936;50.820;4.336;2024-02-23T09:42:55;7.40;99.90
23520;DHT22;11936;50.820;4.336;2024-02-23T09:45:23;7.40;99.90
23520;DHT22;11936;50.820;4.336;2024-02-23T09:47:50;7.50;99.90
23520;DHT22;11936;50.820;4.336;2024-02-23T09:50:17;7.60;99.90
23520;DHT22;11936;50.820;4.336;2024-02-23T09:52:46;7.60;99.90
23520;DHT22;11936;50.820;4.336;2024-02-23T09:55:12;7.80;99.90
23520;DHT22;11936;50.820;4.336;2024-02-23T09:57:38;7.70;99.90
23520;DHT22;11936;50.820;4.336;2024-02-23T10:00:04;7.80;99.90
23520;DHT22;11936;50.820;4.336;2024-02-23T10:02:34;7.90;99.90
23520;DHT22;11936;50.820;4.336;2024-02-23T10:05:01;7.70;99.90
23520;DHT22;11936;50.820;4.336;2024-02-23T10:07:28;7.80;99.90
23520;DHT22;11936;50.820;4.336;2024-02-23T10:09:53;7.70;99.90
23520;DHT22;11936;50.820;4.336;2024-02-23T10:12:20;7.80;99.90
23520;DHT22;11936;50.820;4.336;2024-02-23T10:14:46;7.80;99.90
23520;DHT22;11936;50.820;4.336;2024-02-23T10:17:12;8.00;99.90
23520;DHT22;11936;50.820;4.336;2024-02-23T10:19:37;8.10;99.90
23520;DHT22;11936;50.820;4.336;2024-02-23T10:22:04;8.10;99.90
23520;DHT22;11936;50.820;4.336;2024-02-23T10:24:30;8.30;99.90
23520;DHT22;11936;50.820;4.336;2024-02-23T10:26:55;8.20;99.90
23520;DHT22;11936;50.820;4.336;2024-02-23T10:29:21;8.20;99.90
23520;DHT22;11936;50.820;4.336;2024-02-23T10:31:47;8.10;99.90
23520;DHT22;11936;50.820;4.336;2024-02-23T10:34:18;8.20;99.90
23520;DHT22;11936;50.820;4.336;2024-02-23T10:36:45;8.30;99.90
23520;DHT22;11936;50.820;4.336;2024-02-23T10:39:17;8.30;99.90
23520;DHT22;11936;50.820;4.336;2024-02-23T10:41:47;8.30;99.90
23520;DHT22;11936;50.820;4.336;2024-02-23T10:44:18;8.30;99.90
23520;DHT22;11936;50.820;4.336;2024-02-23T10:46:44;8.50;99.90
23520;DHT22;11936;50.820;4.336;2024-02-23T10:49:11;8.50;99.90
23520;DHT22;11936;50.820;4.336;2024-02-23T10:51:39;8.60;99.90
23520;DHT22;11936;50.820;4.336;2024-02-23T10:54:06;8.80;99.90
23520;DHT22;11936;50.820;4.336;2024-02-23T10:56:32;8.60;99.90
23520;DHT22;11936;50.820;4.336;2024-02-23T10:58:57;8.60;99.90
23520;DHT22;11936;50.820;4.336;2024-02-23T11:01:24;8.50;99.90
23520;DHT22;11936;50.820;4.336;2024-02-23T11:03:51;8.60;99.90
23520;DHT22;11936;50.820;4.336;2024-02-23T11:06:17;8.80;99.90
23520;DHT22;11936;50.820;4.336;2024-02-23T11:08:46;8.80;99.90
23520;DHT22;11936;50.820;4.336;2024-02-23T11:11:15;8.80;99.90
23520;DHT22;11936;50.820;4.336;2024-02-23T11:13:44;8.70;99.90
23520;DHT22;11936;50.820;4.336;2024-02-23T11:16:09;8.50;99.90
23520;DHT22;11936;50.820;4.336;2024-02-23T11:18:36;8.60;99.90
23520;DHT22;11936;50.820;4.336;2024-02-23T11:21:03;8.60;99.90
23520;DHT22;11936;50.820;4.336;2024-02-23T11:23:48;8.70;99.90
23520;DHT22;11936;50.820;4.336;2024-02-23T11:26:15;8.70;99.90
23520;DHT22;11936;50.820;4.336;2024-02-23T11:28:50;8.80;99.90
23520;DHT22;11936;50.820;4.336;2024-02-23T11:31:22;8.90;99.90
23520;DHT22;11936;50.820;4.336;2024-02-23T11:33:49;8.90;99.90
23520;DHT22;11936;50.820;4.336;2024-02-23T11:36:31;8.90;99.90
23520;DHT22;11936;50.820;4.336;2024-02-23T11:38:59;8.80;99.90
23520;DHT22;11936;50.820;4.336;2024-02-23T11:41:26;8.90;99.90
23520;DHT22;11936;50.820;4.336;2024-02-23T11:43:53;9.10;99.90
23520;DHT22;11936;50.820;4.336;2024-02-23T11:46:19;9.10;99.90
23520;DHT22;11936;50.820;4.336;2024-02-23T11:48:45;8.90;99.90
23520;DHT22;11936;50.820;4.336;2024-02-23T11:51:13;8.70;99.90
23520;DHT22;11936;50.820;4.336;2024-02-23T11:53:39;8.70;99.90
23520;DHT22;11936;50.820;4.336;2024-02-23T11:56:05;8.60;99.90
23520;DHT22;11936;50.820;4.336;2024-02-23T11:58:32;8.90;99.90
23520;DHT22;11936;50.820;4.336;2024-02-23T12:00:59;9.20;99.90
23520;DHT22;11936;50.820;4.336;2024-02-23T12:03:31;9.20;99.90
23520;DHT22;11936;50.820;4.336;2024-02-23T12:06:00;9.40;99.90
23520;DHT22;11936;50.820;4.336;2024-02-23T12:08:27;9.30;99.90
23520;DHT22;11936;50.820;4.336;2024-02-23T12:10:56;9.20;99.90
23520;DHT22;11936;50.820;4.336;2024-02-23T12:13:22;9.10;99.90
23520;DHT22;11936;50.820;4.336;2024-02-23T12:15:48;9.10;99.90
23520;DHT22;11936;50.820;4.336;2024-02-23T12:18:18;9.30;99.90
23520;DHT22;11936;50.820;4.336;2024-02-23T12:20:47;9.30;99.90
23520;DHT22;11936;50.820;4.336;2024-02-23T12:23:13;9.40;99.90
23520;DHT22;11936;50.820;4.336;2024-02-23T12:25:38;9.40;99.90
23520;DHT22;11936;50.820;4.336;2024-02-23T12:28:04;9.30;99.90
23520;DHT22;11936;50.820;4.336;2024-02-23T12:30:30;9.40;99.90
23520;DHT22;11936;50.820;4.336;2024-02-23T12:33:04;9.30;99.90
23520;DHT22;11936;50.820;4.336;2024-02-23T12:35:30;9.30;99.90
23520;DHT22;11936;50.820;4.336;2024-02-23T12:37:55;9.50;99.90
23520;DHT22;11936;50.820;4.336;2024-02-23T12:40:21;9.50;99.90
23520;DHT22;11936;50.820;4.336;2024-02-23T12:42:46;9.50;99.90
23520;DHT22;11936;50.820;4.336;2024-02-23T12:45:14;9.70;99.90
23520;DHT22;11936;50.820;4.336;2024-02-23T12:47:39;9.80;99.90
23520;DHT22;11936;50.820;4.336;2024-02-23T12:50:06;9.70;99.90
23520;DHT22;11936;50.820;4.336;2024-02-23T12:52:33;9.50;99.90
23520;DHT22;11936;50.820;4.336;2024-02-23T12:54:59;9.60;99.90
23520;DHT22;11936;50.820;4.336;2024-02-23T12:57:24;9.40;99.90
23520;DHT22;11936;50.820;4.336;2024-02-23T12:59:50;9.30;99.90
23520;DHT22;11936;50.820;4.336;2024-02-23T13:02:16;9.40;99.90
23520;DHT22;11936;50.820;4.336;2024-02-23T13:04:42;9.50;99.90
23520;DHT22;11936;50.820;4.336;2024-02-23T13:07:11;9.50;99.90
23520;DHT22;11936;50.820;4.336;2024-02-23T13:09:37;9.40;99.90
23520;DHT22;11936;50.820;4.336;2024-02-23T13:12:03;9.50;99.90
23520;DHT22;11936;50.820;4.336;2024-02-23T13:14:29;9.30;99.90
23520;DHT22;11936;50.820;4.336;2024-02-23T13:16:55;9.20;99.90
23520;DHT22;11936;50.820;4.336;2024-02-23T13:19:20;9.20;99.90
23520;DHT22;11936;50.820;4.336;2024-02-23T13:21:46;9.30;99.90
23520;DHT22;11936;50.820;4.336;2024-02-23T13:24:11;9.40;99.90
23520;DHT22;11936;50.820;4.336;2024-02-23T13:26:37;9.40;99.90
23520;DHT22;11936;50.820;4.336;2024-02-23T13:29:03;9.40;99.90
23520;DHT22;11936;50.820;4.336;2024-02-23T13:31:29;9.50;99.90
23520;DHT22;11936;50.820;4.336;2024-02-23T13:33:54;9.60;99.90
23520;DHT22;11936;50.820;4.336;2024-02-23T13:36:20;9.50;99.90
23520;DHT22;11936;50.820;4.336;2024-02-23T13:38:46;9.40;99.90
23520;DHT22;11936;50.820;4.336;2024-02-23T13:41:11;9.40;99.90
23520;DHT22;11936;50.820;4.336;2024-02-23T13:43:37;9.40;99.90
23520;DHT22;11936;50.820;4.336;2024-02-23T13:46:03;9.30;99.90
23520;DHT22;11936;50.820;4.336;2024-02-23T13:48:29;9.50;99.90
23520;DHT22;11936;50.820;4.336;2024-02-23T13:50:55;9.70;99.90
23520;DHT22;11936;50.820;4.336;2024-02-23T13:53:20;9.60;99.90
23520;DHT22;11936;50.820;4.336;2024-02-23T13:55:46;9.80;99.90
23520;DHT22;11936;50.820;4.336;2024-02-23T13:58:11;10.10;99.90
23520;DHT22;11936;50.820;4.336;2024-02-23T14:00:37;10.30;99.90
23520;DHT22;11936;50.820;4.336;2024-02-23T14:03:03;10.40;99.90
23520;DHT22;11936;50.820;4.336;2024-02-23T14:05:29;10.30;99.90
23520;DHT22;11936;50.820;4.336;2024-02-23T14:07:54;10.20;99.90
23520;DHT22;11936;50.820;4.336;2024-02-23T14:10:20;10.20;99.90
23520;DHT22;11936;50.820;4.336;2024-02-23T14:12:46;10.20;99.90
23520;DHT22;11936;50.820;4.336;2024-02-23T14:15:12;10.30;99.90
23520;DHT22;11936;50.820;4.336;2024-02-23T14:17:38;10.30;99.90
23520;DHT22;11936;50.820;4.336;2024-02-23T14:20:04;10.30;99.90
23520;DHT22;11936;50.820;4.336;2024-02-23T14:22:30;10.40;99.90
23520;DHT22;11936;50.820;4.336;2024-02-23T14:24:56;10.30;99.90
23520;DHT22;11936;50.820;4.336;2024-02-23T14:27:22;10.20;99.90
23520;DHT22;11936;50.820;4.336;2024-02-23T14:29:48;10.20;99.90
23520;DHT22;11936;50.820;4.336;2024-02-23T14:32:16;10.20;99.90
23520;DHT22;11936;50.820;4.336;2024-02-23T14:34:42;10.20;99.90
23520;DHT22;11936;50.820;4.336;2024-02-23T14:37:08;10.10;99.90
23520;DHT22;11936;50.820;4.336;2024-02-23T14:39:33;10.10;99.90
23520;DHT22;11936;50.820;4.336;2024-02-23T14:42:02;10.00;99.90
23520;DHT22;11936;50.820;4.336;2024-02-23T14:44:34;10.10;99.90
23520;DHT22;11936;50.820;4.336;2024-02-23T14:47:00;10.10;99.90
23520;DHT22;11936;50.820;4.336;2024-02-23T14:49:25;10.10;99.90
23520;DHT22;11936;50.820;4.336;2024-02-23T14:51:51;10.10;99.90
23520;DHT22;11936;50.820;4.336;2024-02-23T14:54:17;10.20;99.90
23520;DHT22;11936;50.820;4.336;2024-02-23T14:56:42;10.30;99.90
23520;DHT22;11936;50.820;4.336;2024-02-23T14:59:08;10.40;99.90
23520;DHT22;11936;50.820;4.336;2024-02-23T15:01:37;10.30;99.90
23520;DHT22;11936;50.820;4.336;2024-02-23T15:04:12;10.30;99.90
23520;DHT22;11936;50.820;4.336;2024-02-23T15:06:37;10.30;99.90
23520;DHT22;11936;50.820;4.336;2024-02-23T15:09:03;10.40;99.90
23520;DHT22;11936;50.820;4.336;2024-02-23T15:11:29;10.50;99.90
23520;DHT22;11936;50.820;4.336;2024-02-23T15:13:55;10.50;99.90
23520;DHT22;11936;50.820;4.336;2024-02-23T15:16:24;10.40;99.90
23520;DHT22;11936;50.820;4.336;2024-02-23T15:18:50;10.30;99.90
23520;DHT22;11936;50.820;4.336;2024-02-23T15:21:15;10.30;99.90
23520;DHT22;11936;50.820;4.336;2024-02-23T15:23:43;10.30;99.90
23520;DHT22;11936;50.820;4.336;2024-02-23T15:26:08;10.30;99.90
23520;DHT22;11936;50.820;4.336;2024-02-23T15:28:34;10.30;99.90
23520;DHT22;11936;50.820;4.336;2024-02-23T15:31:00;10.20;99.90
23520;DHT22;11936;50.820;4.336;2024-02-23T15:33:28;10.20;99.90
23520;DHT22;11936;50.820;4.336;2024-02-23T15:35:54;10.20;99.90
23520;DHT22;11936;50.820;4.336;2024-02-23T15:38:20;10.30;99.90